Del Rio International Airport Del Rio US
ICAO: KDRT
IATA: DRT
Category: Medium
Scheduled Services: No

Elevation: 1002 ft
TransAlt. 18000 ft.

Airport Communications:
APP:119.6
ASOS:118.525
CLNC DEL:120.5
DEP:119.6
SAN ANGELO RDO:122.3
CTAF/UNICOM:122.8

KDRT Zoom In..

Runways:

(A) RW 13 length 6300 ft width 100 ft
ILS 111.90 / hdg 132

(B) RW 31 length 6300 ft width 100 ft
---- / hdg 312

Location; KDRT
Day. 24 / Time. 06.53 Zulu
* Altimeter: 30.00
* Temperature: 27° c. 80.6°f.
* Wind from: 090° Speed 11 kn.
Dewpoint: 21° c.
Visibility: 10 Statute Miles.
Clouds: Broken 7000 ft.

KDRT 240653Z AUTO 09011KT 10SM BKN070 27/21 A3000 RMK AO2 SLP141 T02670206


Wind From 090°
Speed 11 kn.

 
 
jpsmedia.com for Web Design SOUNDCLOUD worldairports.se 2018   terms of use